Time;durP1;ratioP1;P1;durP2;ratioP2;P2;SDS_P1;SDS_P2;PMS_P1;PMS_P2;Temp;Humidity;BMP_temperature;BMP_pressure;BME280_temperature;BME280_humidity;BME280_pressure;Samples;Min_cycle;Max_cycle;Signal;HPM_P1;HPM_P2
2023/03/09 00:02:15;;;;;;;14.30;9.40;;;3.50;99.90;;;;;;4996727;28;93294;-73
2023/03/09 00:04:42;;;;;;;15.52;9.50;;;3.50;99.90;;;;;;4997692;28;93889;-73
2023/03/09 00:07:10;;;;;;;13.05;9.52;;;3.50;99.90;;;;;;5012707;28;94919;-73
2023/03/09 00:09:37;;;;;;;15.00;9.65;;;3.50;99.90;;;;;;5014724;28;95919;-73
2023/03/09 00:12:04;;;;;;;14.73;9.82;;;3.60;99.90;;;;;;4996605;28;95923;-73
2023/03/09 00:14:31;;;;;;;16.35;11.90;;;3.60;99.90;;;;;;4980679;28;95515;-73
2023/03/09 00:16:58;;;;;;;15.65;10.25;;;3.50;99.90;;;;;;5015785;28;93192;-73
2023/03/09 00:19:30;;;;;;;16.10;10.73;;;3.50;99.90;;;;;;5016865;28;92511;-73
2023/03/09 00:21:57;;;;;;;14.55;10.35;;;3.50;99.90;;;;;;5018187;28;93309;-73
2023/03/09 00:24:27;;;;;;;16.02;10.00;;;3.50;99.90;;;;;;5016537;28;98835;-73
2023/03/09 00:26:57;;;;;;;22.65;11.20;;;3.50;99.90;;;;;;5017877;28;92383;-73
2023/03/09 00:29:26;;;;;;;16.52;10.43;;;3.40;99.90;;;;;;4999869;28;93059;-73
2023/03/09 00:31:56;;;;;;;17.75;11.80;;;3.40;99.90;;;;;;4998877;28;97914;-73
2023/03/09 00:34:23;;;;;;;15.95;11.85;;;3.30;99.90;;;;;;4999404;28;97604;-73
2023/03/09 00:36:50;;;;;;;14.95;9.60;;;3.30;99.90;;;;;;5018050;28;92427;-73
2023/03/09 00:39:17;;;;;;;16.65;10.90;;;3.20;99.90;;;;;;5018572;28;92481;-73
2023/03/09 00:41:45;;;;;;;14.63;10.05;;;3.10;99.90;;;;;;4999447;28;95686;-73
2023/03/09 00:44:13;;;;;;;14.93;10.70;;;3.10;99.90;;;;;;4982927;28;95683;-73
2023/03/09 00:46:41;;;;;;;14.35;10.00;;;3.00;99.90;;;;;;4999576;28;92546;-73
2023/03/09 00:49:11;;;;;;;18.00;10.45;;;3.00;99.90;;;;;;4999883;28;91765;-73
2023/03/09 00:51:38;;;;;;;12.45;8.48;;;3.00;99.90;;;;;;4999310;28;95687;-73
2023/03/09 00:54:05;;;;;;;16.58;9.85;;;3.00;99.90;;;;;;4999707;28;96179;-73
2023/03/09 00:56:32;;;;;;;16.10;10.20;;;2.90;99.90;;;;;;5017089;28;94841;-73
2023/03/09 00:59:00;;;;;;;14.13;8.98;;;2.90;99.90;;;;;;4983115;28;93010;-73
2023/03/09 01:01:27;;;;;;;14.57;10.25;;;2.90;99.90;;;;;;4999681;28;95704;-73
2023/03/09 01:03:54;;;;;;;14.75;9.52;;;2.90;99.90;;;;;;4998953;28;95928;-73
2023/03/09 01:06:23;;;;;;;13.75;9.60;;;2.90;99.90;;;;;;4999776;28;92909;-73
2023/03/09 01:08:51;;;;;;;14.20;10.85;;;2.90;99.90;;;;;;4999893;28;92505;-73
2023/03/09 01:11:18;;;;;;;16.20;10.55;;;2.90;99.90;;;;;;4999298;28;93311;-73
2023/03/09 01:13:46;;;;;;;14.80;9.50;;;2.90;99.90;;;;;;4983178;28;94850;-73
2023/03/09 01:16:13;;;;;;;14.52;9.85;;;2.90;99.90;;;;;;4999688;28;92548;-73
2023/03/09 01:18:41;;;;;;;15.00;9.57;;;2.90;99.90;;;;;;4999680;28;92506;-73
2023/03/09 01:21:08;;;;;;;16.35;9.52;;;2.90;99.90;;;;;;4997929;28;98081;-73
2023/03/09 01:23:39;;;;;;;13.10;7.40;;;2.90;99.90;;;;;;5017564;28;95416;-73
2023/03/09 01:26:07;;;;;;;15.90;10.32;;;2.90;99.90;;;;;;4983224;28;92474;-73
2023/03/09 01:28:36;;;;;;;17.10;10.82;;;2.80;99.90;;;;;;5016736;28;92453;-73
2023/03/09 01:31:11;;;;;;;13.63;9.57;;;2.80;99.90;;;;;;5015673;28;93265;-73
2023/03/09 01:33:40;;;;;;;13.90;9.10;;;2.80;99.90;;;;;;4999604;28;95735;-73
2023/03/09 01:36:12;;;;;;;12.60;8.82;;;2.70;99.90;;;;;;4999863;28;92434;-73
2023/03/09 01:38:39;;;;;;;11.88;7.60;;;2.70;99.90;;;;;;5018433;28;91676;-73
2023/03/09 01:41:06;;;;;;;17.55;9.68;;;2.60;99.90;;;;;;4982617;28;96138;-73
2023/03/09 01:43:42;;;;;;;14.23;8.15;;;2.60;99.90;;;;;;4999018;28;95572;-73
2023/03/09 01:46:29;;;;;;;12.07;8.23;;;2.60;99.90;;;;;;5016666;28;95284;-73
2023/03/09 01:49:09;;;;;;;12.85;8.60;;;2.60;99.90;;;;;;4999358;28;92523;-73
2023/03/09 01:51:47;;;;;;;11.35;8.23;;;2.60;99.90;;;;;;4999000;28;95847;-73
2023/03/09 01:54:26;;;;;;;11.60;8.45;;;2.60;99.90;;;;;;4998760;28;95639;-73
2023/03/09 01:57:01;;;;;;;12.63;9.18;;;2.60;99.90;;;;;;5015742;28;92497;-73
2023/03/09 01:59:30;;;;;;;12.98;8.55;;;2.50;99.90;;;;;;4982421;28;92551;-73
2023/03/09 02:01:58;;;;;;;14.55;9.35;;;2.50;99.90;;;;;;4982411;28;95415;-73
2023/03/09 02:04:36;;;;;;;11.48;6.32;;;2.50;99.90;;;;;;5015790;28;95435;-73
2023/03/09 02:07:04;;;;;;;13.18;8.48;;;2.50;99.90;;;;;;5017720;28;92540;-73
2023/03/09 02:09:38;;;;;;;14.38;9.68;;;2.50;99.90;;;;;;4978824;28;93016;-73
2023/03/09 02:12:12;;;;;;;15.10;9.45;;;2.50;99.90;;;;;;4994398;28;98532;-73
2023/03/09 02:14:40;;;;;;;14.05;8.60;;;2.50;99.90;;;;;;4995510;28;97473;-73
2023/03/09 02:17:12;;;;;;;15.77;10.27;;;2.50;99.90;;;;;;4995531;28;92411;-73
2023/03/09 02:20:10;;;;;;;14.65;9.57;;;2.50;99.90;;;;;;4994636;28;92606;-73
2023/03/09 02:22:39;;;;;;;15.20;10.40;;;2.50;99.90;;;;;;4995254;28;95723;-73
2023/03/09 02:26:01;;;;;;;17.08;10.38;;;2.50;99.90;;;;;;4995020;28;93663;-73
2023/03/09 02:28:29;;;;;;;14.82;9.45;;;2.50;99.90;;;;;;4938017;28;92536;-73
2023/03/09 02:30:56;;;;;;;15.98;10.15;;;2.50;99.90;;;;;;4939299;28;91767;-73
2023/03/09 02:33:27;;;;;;;15.40;9.52;;;2.40;99.90;;;;;;4970407;28;95797;-73
2023/03/09 02:35:58;;;;;;;17.17;10.50;;;2.50;99.90;;;;;;4995705;28;95595;-73
2023/03/09 02:38:27;;;;;;;15.75;10.02;;;2.40;99.90;;;;;;4976909;28;94854;-73
2023/03/09 02:40:59;;;;;;;15.80;9.52;;;2.50;99.90;;;;;;4993954;28;92601;-73
2023/03/09 02:43:35;;;;;;;17.20;11.77;;;2.50;99.90;;;;;;4994761;28;96204;-73
2023/03/09 02:46:03;;;;;;;16.02;10.13;;;2.50;99.90;;;;;;4978151;28;95690;-73
2023/03/09 02:48:33;;;;;;;16.17;10.50;;;2.50;99.90;;;;;;5011348;28;92892;-73
2023/03/09 02:51:01;;;;;;;17.63;10.80;;;2.50;99.90;;;;;;4996054;28;92441;-73
2023/03/09 02:53:28;;;;;;;17.27;10.60;;;2.50;99.90;;;;;;4994207;28;96280;-73
2023/03/09 02:55:55;;;;;;;14.95;10.32;;;2.50;99.90;;;;;;4995368;28;95406;-73
2023/03/09 02:58:23;;;;;;;15.50;10.43;;;2.50;99.90;;;;;;5010984;28;92546;-73
2023/03/09 03:00:50;;;;;;;12.55;8.52;;;2.50;99.90;;;;;;4994412;28;92556;-73
2023/03/09 03:03:19;;;;;;;15.13;9.68;;;2.50;99.90;;;;;;4977199;28;96600;-73
2023/03/09 03:05:48;;;;;;;13.38;9.32;;;2.50;99.90;;;;;;4994717;28;98357;-73
2023/03/09 03:08:15;;;;;;;15.02;10.70;;;2.50;99.90;;;;;;4996245;28;92488;-73
2023/03/09 03:10:56;;;;;;;14.43;9.40;;;2.60;99.90;;;;;;4997410;28;92524;-73
2023/03/09 03:13:23;;;;;;;14.40;9.85;;;2.60;99.90;;;;;;4981459;28;95456;-73
2023/03/09 03:15:56;;;;;;;13.70;9.32;;;2.60;99.90;;;;;;5014559;28;95639;-73
2023/03/09 03:18:23;;;;;;;16.55;9.20;;;2.60;99.90;;;;;;4997876;28;92557;-73
2023/03/09 03:20:50;;;;;;;13.40;9.13;;;2.60;99.90;;;;;;4981875;28;91730;-73
2023/03/09 03:23:17;;;;;;;14.05;8.85;;;2.60;99.90;;;;;;5014312;28;95585;-73
2023/03/09 03:25:49;;;;;;;12.40;8.32;;;2.60;99.90;;;;;;5014025;28;95711;-73
2023/03/09 03:28:16;;;;;;;14.32;9.18;;;2.60;99.90;;;;;;4980424;28;94968;-73
2023/03/09 03:30:50;;;;;;;13.63;10.05;;;2.60;99.90;;;;;;4981312;28;92420;-73
2023/03/09 03:33:20;;;;;;;15.75;9.75;;;2.60;99.90;;;;;;5015446;28;93360;-73
2023/03/09 03:35:46;;;;;;;15.57;8.52;;;2.60;99.90;;;;;;5014005;28;95647;-73
2023/03/09 03:38:14;;;;;;;14.05;9.40;;;2.60;99.90;;;;;;5014332;28;93083;-73
2023/03/09 03:40:41;;;;;;;15.57;9.88;;;2.50;99.90;;;;;;4981012;28;92372;-73
2023/03/09 03:43:09;;;;;;;17.13;10.55;;;2.50;99.90;;;;;;4997434;28;95888;-73
2023/03/09 03:45:39;;;;;;;17.45;11.40;;;2.50;99.90;;;;;;4981030;28;95161;-73
2023/03/09 03:48:06;;;;;;;18.95;12.20;;;2.50;99.90;;;;;;4996954;28;92928;-73
2023/03/09 03:50:33;;;;;;;20.23;13.10;;;2.50;99.90;;;;;;5013244;28;92476;-73
2023/03/09 03:53:02;;;;;;;19.15;11.48;;;2.50;99.90;;;;;;5012213;28;97658;-73
2023/03/09 03:55:29;;;;;;;14.00;8.05;;;2.50;99.90;;;;;;4996708;28;97789;-73
2023/03/09 03:57:57;;;;;;;18.50;11.65;;;2.50;99.90;;;;;;4997243;28;92500;-73
2023/03/09 04:00:25;;;;;;;14.65;9.15;;;2.40;99.90;;;;;;4980503;28;92544;-73
2023/03/09 04:02:56;;;;;;;22.05;12.93;;;2.40;99.90;;;;;;4981264;28;95517;-73
2023/03/09 04:05:31;;;;;;;20.52;12.63;;;2.40;99.90;;;;;;4981160;28;95418;-73
2023/03/09 04:07:58;;;;;;;20.92;11.60;;;2.40;99.90;;;;;;5013305;28;92401;-73
2023/03/09 04:10:25;;;;;;;13.80;8.82;;;2.40;99.90;;;;;;4997053;28;94992;-73
2023/03/09 04:12:52;;;;;;;21.90;13.63;;;2.40;99.90;;;;;;5013347;28;95282;-73
2023/03/09 04:15:20;;;;;;;21.42;12.57;;;2.40;99.90;;;;;;5013133;28;95497;-73
2023/03/09 04:17:48;;;;;;;21.67;12.20;;;2.40;99.90;;;;;;4994964;28;94930;-73
2023/03/09 04:20:17;;;;;;;17.23;10.88;;;2.40;99.90;;;;;;4996496;28;92666;-73
2023/03/09 04:22:48;;;;;;;20.50;12.23;;;2.40;99.90;;;;;;4996065;28;94814;-73
2023/03/09 04:25:17;;;;;;;21.25;13.35;;;2.40;99.90;;;;;;4996313;28;94102;-73
2023/03/09 04:27:44;;;;;;;22.05;11.90;;;2.50;99.90;;;;;;4996370;28;92500;-73
2023/03/09 04:30:30;;;;;;;20.38;11.85;;;2.50;99.90;;;;;;5013415;28;92519;-73
2023/03/09 04:32:59;;;;;;;21.33;13.93;;;2.50;99.90;;;;;;5013102;28;95706;-73
2023/03/09 04:35:26;;;;;;;23.13;12.88;;;2.50;99.90;;;;;;4980310;28;95527;-73
2023/03/09 04:37:56;;;;;;;14.38;8.75;;;2.50;99.90;;;;;;4996070;28;92465;-73
2023/03/09 04:40:23;;;;;;;21.63;12.88;;;2.50;99.90;;;;;;4996793;28;92433;-73
2023/03/09 04:42:53;;;;;;;21.88;12.40;;;2.50;99.90;;;;;;4978587;28;97829;-73
2023/03/09 04:45:20;;;;;;;20.63;10.23;;;2.50;99.90;;;;;;4996116;28;98127;-73
2023/03/09 04:47:48;;;;;;;20.75;13.00;;;2.40;99.90;;;;;;4996041;28;92397;-73
2023/03/09 04:50:16;;;;;;;25.02;14.52;;;2.40;99.90;;;;;;5013107;28;93412;-73
2023/03/09 04:52:51;;;;;;;22.85;14.60;;;2.50;99.90;;;;;;4995857;28;95512;-73
2023/03/09 04:55:18;;;;;;;27.52;16.48;;;2.50;99.90;;;;;;4979474;28;95149;-73
2023/03/09 04:57:46;;;;;;;21.70;12.73;;;2.60;99.90;;;;;;4996007;28;92502;-73
2023/03/09 05:00:15;;;;;;;27.38;15.15;;;2.50;99.90;;;;;;5013113;28;91709;-73
2023/03/09 05:02:42;;;;;;;26.60;14.90;;;2.60;99.90;;;;;;4996624;28;95544;-73
2023/03/09 05:05:10;;;;;;;24.13;13.82;;;2.60;99.90;;;;;;5016091;28;95255;-73
2023/03/09 05:07:37;;;;;;;25.55;13.82;;;2.60;99.90;;;;;;5016515;28;94765;-73
2023/03/09 05:10:07;;;;;;;25.52;14.65;;;2.50;99.90;;;;;;4999330;28;92538;-73
2023/03/09 05:12:36;;;;;;;21.35;13.13;;;2.50;99.90;;;;;;5015933;28;95558;-73
2023/03/09 05:15:07;;;;;;;27.35;13.75;;;2.50;99.90;;;;;;4967475;28;94086;-72
2023/03/09 05:17:35;;;;;;;22.02;12.13;;;2.50;99.90;;;;;;4999354;28;92471;-72
2023/03/09 05:20:09;;;;;;;15.52;9.55;;;2.50;99.90;;;;;;5015639;28;92595;-73
2023/03/09 05:22:40;;;;;;;22.23;12.52;;;2.50;99.90;;;;;;4999211;28;95994;-73
2023/03/09 05:25:09;;;;;;;23.85;13.57;;;2.40;99.90;;;;;;5016001;28;95401;-73
2023/03/09 05:27:37;;;;;;;23.33;13.27;;;2.40;99.90;;;;;;4999210;28;92484;-73
2023/03/09 05:30:06;;;;;;;24.02;13.38;;;2.40;99.90;;;;;;4998937;28;92454;-73
2023/03/09 05:32:34;;;;;;;17.65;10.35;;;2.50;99.90;;;;;;4997552;28;97455;-73
2023/03/09 05:35:02;;;;;;;23.15;12.88;;;2.40;99.90;;;;;;4998483;28;96381;-72
2023/03/09 05:37:32;;;;;;;23.05;13.52;;;2.30;99.90;;;;;;5015774;28;92408;-73
2023/03/09 05:40:04;;;;;;;23.25;12.60;;;2.40;99.90;;;;;;4998797;28;93698;-73
2023/03/09 05:42:32;;;;;;;22.67;14.02;;;2.30;99.90;;;;;;4998949;28;94800;-73
2023/03/09 05:45:02;;;;;;;25.80;13.63;;;2.30;99.90;;;;;;4998337;28;95363;-73
2023/03/09 05:47:29;;;;;;;27.95;15.23;;;2.30;99.90;;;;;;5015349;28;93066;-72
2023/03/09 05:49:55;;;;;;;24.45;12.45;;;2.30;99.90;;;;;;5015932;28;91847;-73
2023/03/09 05:52:23;;;;;;;27.70;15.90;;;2.30;99.90;;;;;;4982057;28;95798;-73
2023/03/09 05:54:50;;;;;;;28.83;14.43;;;2.30;99.90;;;;;;4998251;28;95450;-73
2023/03/09 05:57:17;;;;;;;26.05;13.02;;;2.30;99.90;;;;;;5015566;28;94840;-73
2023/03/09 05:59:48;;;;;;;24.42;14.63;;;2.30;99.90;;;;;;4982444;28;93282;-73
2023/03/09 06:02:15;;;;;;;22.60;13.50;;;2.30;99.90;;;;;;5014902;28;95475;-73
2023/03/09 06:04:48;;;;;;;25.95;13.98;;;2.30;99.90;;;;;;4982150;28;95338;-73
2023/03/09 06:07:15;;;;;;;21.33;12.60;;;2.30;99.90;;;;;;5016983;28;92977;-73
2023/03/09 06:09:45;;;;;;;19.65;12.30;;;2.30;99.90;;;;;;5016625;28;93024;-73
2023/03/09 06:12:18;;;;;;;24.08;14.70;;;2.30;99.90;;;;;;5014978;28;95662;-73
2023/03/09 06:14:51;;;;;;;26.23;13.55;;;2.30;99.90;;;;;;4981191;28;94263;-73
2023/03/09 06:17:20;;;;;;;20.60;13.20;;;2.40;99.90;;;;;;4998439;28;92361;-73
2023/03/09 06:19:47;;;;;;;20.90;12.70;;;2.30;99.90;;;;;;5014725;28;92505;-73
2023/03/09 06:22:15;;;;;;;20.20;12.02;;;2.40;99.90;;;;;;5013401;28;97934;-73
2023/03/09 06:24:42;;;;;;;21.13;12.43;;;2.40;99.90;;;;;;4965303;28;97812;-73
2023/03/09 06:27:13;;;;;;;21.30;12.70;;;2.50;99.90;;;;;;5014909;28;92525;-73
2023/03/09 06:29:40;;;;;;;22.95;13.30;;;2.50;99.90;;;;;;5014968;28;92497;-73
2023/03/09 06:32:07;;;;;;;20.50;13.00;;;2.50;99.90;;;;;;5014257;28;95553;-73
2023/03/09 06:34:37;;;;;;;22.90;12.57;;;2.50;99.90;;;;;;5014469;28;95309;-73
2023/03/09 06:37:07;;;;;;;19.98;12.02;;;2.60;99.90;;;;;;4981793;28;92486;-73
2023/03/09 06:39:34;;;;;;;23.58;12.45;;;2.60;99.90;;;;;;5015009;28;91969;-73
2023/03/09 06:42:02;;;;;;;19.98;13.27;;;2.60;99.90;;;;;;4997365;28;95182;-73
2023/03/09 06:44:37;;;;;;;21.58;12.65;;;2.70;99.90;;;;;;4981732;28;94947;-73
2023/03/09 06:47:04;;;;;;;20.08;11.13;;;2.70;99.90;;;;;;4979937;28;94886;-73
2023/03/09 06:49:31;;;;;;;22.65;14.00;;;2.80;99.90;;;;;;5016018;28;92956;-73
2023/03/09 06:52:05;;;;;;;20.65;12.15;;;2.80;99.90;;;;;;5013921;28;95619;-73
2023/03/09 06:54:32;;;;;;;18.98;11.68;;;2.80;99.90;;;;;;4997540;28;95068;-73
2023/03/09 06:57:09;;;;;;;16.45;10.82;;;2.80;99.90;;;;;;4982464;28;92489;-73
2023/03/09 06:59:38;;;;;;;20.20;12.93;;;2.80;99.90;;;;;;5014417;28;92552;-73
2023/03/09 07:02:06;;;;;;;21.85;13.82;;;2.80;99.90;;;;;;4997211;28;95974;-73
2023/03/09 07:04:32;;;;;;;21.70;13.10;;;2.90;99.90;;;;;;5015708;28;93040;-73
2023/03/09 07:06:59;;;;;;;23.70;12.95;;;2.90;99.90;;;;;;4980702;28;92467;-73
2023/03/09 07:09:26;;;;;;;20.45;12.38;;;3.00;99.90;;;;;;5015285;28;92503;-73
2023/03/09 07:11:54;;;;;;;21.88;13.43;;;3.00;99.90;;;;;;5012699;28;98237;-73
2023/03/09 07:14:21;;;;;;;21.73;13.82;;;3.00;99.90;;;;;;5015165;28;94449;-73
2023/03/09 07:16:55;;;;;;;19.33;12.80;;;3.10;99.90;;;;;;4981165;28;92500;-73
2023/03/09 07:19:23;;;;;;;23.45;13.23;;;3.30;99.90;;;;;;4997462;28;92389;-73
2023/03/09 07:21:50;;;;;;;21.70;14.00;;;3.30;99.90;;;;;;5015235;28;93719;-73
2023/03/09 07:24:18;;;;;;;23.10;13.90;;;3.40;99.90;;;;;;4980471;28;95680;-73
2023/03/09 07:26:46;;;;;;;17.85;11.40;;;3.50;99.90;;;;;;5013207;28;97502;-73
2023/03/09 07:29:14;;;;;;;19.55;12.80;;;3.60;99.90;;;;;;5014135;28;91799;-73
2023/03/09 07:31:41;;;;;;;19.95;12.95;;;3.60;99.90;;;;;;5013552;28;95796;-73
2023/03/09 07:34:08;;;;;;;19.75;12.23;;;3.60;99.90;;;;;;4996654;28;95759;-73
2023/03/09 07:36:35;;;;;;;20.83;13.00;;;3.60;99.90;;;;;;5013987;28;94905;-73
2023/03/09 07:39:02;;;;;;;19.38;11.90;;;3.70;99.90;;;;;;4996786;28;92538;-73
2023/03/09 07:41:29;;;;;;;19.48;13.35;;;3.80;99.90;;;;;;5014911;28;93048;-73
2023/03/09 07:43:58;;;;;;;18.73;12.35;;;3.80;99.90;;;;;;4996974;28;93298;-73
2023/03/09 07:46:26;;;;;;;18.08;12.48;;;3.90;99.90;;;;;;5013609;28;92545;-73
2023/03/09 07:48:53;;;;;;;17.33;11.90;;;3.90;99.90;;;;;;4997108;28;92480;-73
2023/03/09 07:51:22;;;;;;;17.92;11.55;;;3.90;99.90;;;;;;5013605;28;93325;-74
2023/03/09 07:53:49;;;;;;;17.25;10.73;;;3.90;99.90;;;;;;5015120;28;93079;-73
2023/03/09 07:56:16;;;;;;;17.15;11.90;;;3.90;99.90;;;;;;5014826;28;92453;-73
2023/03/09 07:58:44;;;;;;;17.35;11.88;;;3.90;99.90;;;;;;5014975;28;92398;-73
2023/03/09 08:01:16;;;;;;;18.70;11.52;;;3.90;99.90;;;;;;5013241;28;95697;-73
2023/03/09 08:03:47;;;;;;;16.98;11.18;;;4.00;99.90;;;;;;4996777;28;98560;-73
2023/03/09 08:06:15;;;;;;;16.33;10.07;;;4.10;99.90;;;;;;4996493;28;92911;-73
2023/03/09 08:08:42;;;;;;;15.15;10.80;;;4.20;99.90;;;;;;4996717;28;93235;-73
2023/03/09 08:11:09;;;;;;;14.05;10.00;;;4.30;99.90;;;;;;5014278;28;92416;-73
2023/03/09 08:13:36;;;;;;;13.35;10.07;;;4.40;99.90;;;;;;5014814;28;92983;-73
2023/03/09 08:16:06;;;;;;;16.67;10.68;;;4.50;99.90;;;;;;4996946;28;92473;-73
2023/03/09 08:18:34;;;;;;;16.45;10.50;;;4.70;99.90;;;;;;5015243;28;91652;-73
2023/03/09 08:21:06;;;;;;;14.98;10.55;;;4.70;99.90;;;;;;4996870;28;92939;-73
2023/03/09 08:23:35;;;;;;;15.40;10.93;;;4.80;99.90;;;;;;5014459;28;93145;-73
2023/03/09 08:26:02;;;;;;;13.82;9.98;;;4.80;99.90;;;;;;5013525;28;95432;-73
2023/03/09 08:28:30;;;;;;;16.80;11.88;;;4.80;99.90;;;;;;5014898;28;92440;-73
2023/03/09 08:30:57;;;;;;;16.80;11.85;;;4.90;99.90;;;;;;4996445;28;95872;-73
2023/03/09 08:33:25;;;;;;;16.73;11.73;;;4.90;99.90;;;;;;4996387;28;93185;-73
2023/03/09 08:35:52;;;;;;;17.60;12.18;;;4.90;99.90;;;;;;5014858;28;92430;-73
2023/03/09 08:38:19;;;;;;;16.58;12.15;;;4.90;99.90;;;;;;5015665;28;92525;-73
2023/03/09 08:40:47;;;;;;;18.55;12.35;;;4.90;99.90;;;;;;5017909;28;93345;-73
2023/03/09 08:43:14;;;;;;;18.02;12.48;;;4.90;99.90;;;;;;4999596;28;95650;-73
2023/03/09 08:45:41;;;;;;;16.35;12.20;;;5.00;99.90;;;;;;5018148;28;93170;-73
2023/03/09 08:48:08;;;;;;;17.63;11.98;;;5.00;99.90;;;;;;4999355;28;92467;-73
2023/03/09 08:50:35;;;;;;;17.73;12.57;;;5.00;99.90;;;;;;4982328;28;95857;-73
2023/03/09 08:53:02;;;;;;;16.25;12.45;;;5.00;99.90;;;;;;4999576;28;97721;-73
2023/03/09 08:55:30;;;;;;;17.45;11.93;;;5.10;99.90;;;;;;4999842;28;92417;-73
2023/03/09 08:57:58;;;;;;;17.23;11.82;;;5.10;99.90;;;;;;5016300;28;93059;-73
2023/03/09 09:00:25;;;;;;;18.17;11.75;;;5.20;99.90;;;;;;5015525;28;103888;-73
2023/03/09 09:02:52;;;;;;;18.45;12.10;;;5.20;99.90;;;;;;5015722;28;95595;-75
2023/03/09 09:05:19;;;;;;;17.45;11.85;;;5.20;99.90;;;;;;5015645;28;92936;-73
2023/03/09 09:07:47;;;;;;;19.08;13.52;;;5.20;99.90;;;;;;5000089;28;91741;-73
2023/03/09 09:10:14;;;;;;;16.58;11.57;;;5.20;99.90;;;;;;4998616;28;93185;-73
2023/03/09 09:13:01;;;;;;;17.13;12.43;;;5.20;99.90;;;;;;4999357;28;95845;-73
2023/03/09 09:15:27;;;;;;;16.48;11.55;;;5.10;99.90;;;;;;5016152;28;95412;-73
2023/03/09 09:17:55;;;;;;;16.42;11.75;;;5.20;99.90;;;;;;5017344;28;92430;-73
2023/03/09 09:20:22;;;;;;;16.27;11.50;;;5.30;99.90;;;;;;5015413;28;95961;-73
2023/03/09 09:22:49;;;;;;;15.35;11.35;;;5.30;99.90;;;;;;4999082;28;100717;-74
2023/03/09 09:25:16;;;;;;;16.88;12.20;;;5.40;99.90;;;;;;5017133;28;92560;-73
2023/03/09 09:27:43;;;;;;;14.93;10.93;;;5.50;99.90;;;;;;5017330;28;92484;-74
2023/03/09 09:30:11;;;;;;;16.20;12.07;;;5.50;99.90;;;;;;5016917;28;93099;-73
2023/03/09 09:32:40;;;;;;;17.10;11.80;;;5.60;99.90;;;;;;4983047;28;93039;-73
2023/03/09 09:35:07;;;;;;;17.92;12.18;;;5.60;99.90;;;;;;5017085;28;92391;-73
2023/03/09 09:37:34;;;;;;;15.02;10.88;;;5.70;99.90;;;;;;5016811;28;92966;-74
2023/03/09 09:40:02;;;;;;;15.68;11.65;;;5.70;99.90;;;;;;5015305;28;101488;-73
2023/03/09 09:42:39;;;;;;;15.80;12.00;;;5.70;99.90;;;;;;4998336;28;98241;-73
2023/03/09 09:45:35;;;;;;;17.10;12.10;;;5.70;99.90;;;;;;4999038;28;93124;-73
2023/03/09 09:48:05;;;;;;;16.25;11.95;;;5.70;99.90;;;;;;4998957;28;92937;-73
2023/03/09 09:50:49;;;;;;;17.15;11.75;;;5.60;99.90;;;;;;4981939;28;95903;-73
2023/03/09 09:53:28;;;;;;;15.68;11.35;;;5.60;99.90;;;;;;5016407;28;93100;-73
2023/03/09 09:55:56;;;;;;;16.30;10.95;;;5.60;99.90;;;;;;4999204;28;93005;-73
2023/03/09 09:58:39;;;;;;;15.82;11.55;;;5.60;99.90;;;;;;4982844;28;91712;-73
2023/03/09 10:01:20;;;;;;;16.08;12.02;;;5.70;99.90;;;;;;4998433;28;95666;-74
2023/03/09 10:03:51;;;;;;;15.60;11.45;;;5.70;99.90;;;;;;5016622;28;92653;-73
2023/03/09 10:06:24;;;;;;;15.43;11.30;;;5.70;99.90;;;;;;5015300;28;94824;-73
2023/03/09 10:09:14;;;;;;;17.27;12.32;;;5.80;99.90;;;;;;5016490;28;92457;-73
2023/03/09 10:11:45;;;;;;;15.48;11.98;;;5.90;99.90;;;;;;4998057;28;94354;-74
2023/03/09 10:14:35;;;;;;;16.27;11.50;;;6.00;99.90;;;;;;4998331;28;95793;-73
2023/03/09 10:17:14;;;;;;;14.93;11.07;;;6.20;99.90;;;;;;5008098;28;92481;-73
2023/03/09 10:19:42;;;;;;;15.52;11.77;;;6.20;99.90;;;;;;5016379;28;92461;-74
2023/03/09 10:22:12;;;;;;;16.83;11.95;;;6.20;99.90;;;;;;5014722;28;93199;-74
2023/03/09 10:24:43;;;;;;;15.80;11.35;;;6.10;99.90;;;;;;5016619;28;92889;-73
2023/03/09 10:27:18;;;;;;;14.50;11.02;;;6.10;99.90;;;;;;5016517;28;92363;-73
2023/03/09 10:30:06;;;;;;;16.25;11.50;;;6.10;99.90;;;;;;5014884;28;92617;-73
2023/03/09 10:32:50;;;;;;;15.98;12.10;;;6.10;99.90;;;;;;5014680;28;95752;-74
2023/03/09 10:35:43;;;;;;;16.08;11.38;;;6.00;99.90;;;;;;4998079;28;98155;-74
2023/03/09 10:38:15;;;;;;;17.92;12.18;;;6.00;99.90;;;;;;5016226;28;92467;-73
2023/03/09 10:40:53;;;;;;;19.88;12.63;;;6.00;99.90;;;;;;5014669;28;92533;-73
2023/03/09 10:43:32;;;;;;;16.23;11.95;;;6.10;99.90;;;;;;5015842;28;93320;-74
2023/03/09 10:46:14;;;;;;;17.67;11.80;;;6.30;99.90;;;;;;5015733;28;93225;-73
2023/03/09 10:48:46;;;;;;;15.32;11.43;;;6.40;99.90;;;;;;4997745;28;93078;-73
2023/03/09 10:51:43;;;;;;;15.80;11.30;;;6.50;99.90;;;;;;5016607;28;91633;-74
2023/03/09 10:54:24;;;;;;;15.32;10.40;;;6.50;99.90;;;;;;4998115;28;93207;-73
2023/03/09 10:56:52;;;;;;;14.82;12.10;;;6.50;99.90;;;;;;4997874;28;93229;-73
2023/03/09 10:59:25;;;;;;;14.70;11.18;;;6.40;99.90;;;;;;4997023;28;95501;-74
2023/03/09 11:01:59;;;;;;;16.15;11.98;;;6.50;99.90;;;;;;5015120;28;92495;-73
2023/03/09 11:04:27;;;;;;;;;;;6.50;99.90;;;;;;5016044;28;93132;-74
2023/03/09 11:06:56;;;;;;;14.98;10.85;;;6.60;99.90;;;;;;5017205;28;92621;-73
2023/03/09 11:09:45;;;;;;;13.82;10.82;;;6.50;99.90;;;;;;5015211;28;92485;-73
2023/03/09 11:12:17;;;;;;;15.90;10.52;;;6.50;99.90;;;;;;4998008;28;92499;-74
2023/03/09 11:14:59;;;;;;;16.02;12.80;;;6.50;99.90;;;;;;4997111;28;96066;-74
2023/03/09 11:17:28;;;;;;;14.68;11.52;;;6.50;99.90;;;;;;4997386;28;95912;-73
2023/03/09 11:20:18;;;;;;;16.63;12.40;;;6.40;99.90;;;;;;4997728;28;92506;-74
2023/03/09 11:22:57;;;;;;;16.77;11.23;;;6.50;99.90;;;;;;4997476;28;92411;-73
2023/03/09 11:25:56;;;;;;;20.92;14.13;;;6.40;99.90;;;;;;5014181;28;95783;-73
2023/03/09 11:28:44;;;;;;;15.48;10.82;;;6.50;99.90;;;;;;4997117;28;96605;-74
2023/03/09 11:31:16;;;;;;;18.02;12.40;;;6.60;99.90;;;;;;5015319;28;92503;-73
2023/03/09 11:33:45;;;;;;;16.08;11.55;;;6.70;99.90;;;;;;4997255;28;92470;-73
2023/03/09 11:36:24;;;;;;;16.13;12.07;;;6.80;99.90;;;;;;5014019;28;93119;-74
2023/03/09 11:38:52;;;;;;;15.43;11.73;;;6.90;99.90;;;;;;5013992;28;93009;-74
2023/03/09 11:41:22;;;;;;;13.98;11.15;;;6.90;99.90;;;;;;4996976;28;92542;-74
2023/03/09 11:43:54;;;;;;;14.30;10.43;;;7.00;99.90;;;;;;4997411;28;91803;-74
2023/03/09 11:46:21;;;;;;;17.02;12.13;;;7.00;99.90;;;;;;4996707;28;94778;-74
2023/03/09 11:48:59;;;;;;;14.55;11.35;;;7.10;99.90;;;;;;5015005;28;95988;-74
2023/03/09 11:51:44;;;;;;;14.55;11.38;;;7.10;99.90;;;;;;5013970;28;94862;-74
2023/03/09 11:54:27;;;;;;;16.83;13.02;;;7.10;99.90;;;;;;5015063;28;93298;-74
2023/03/09 11:56:55;;;;;;;14.93;11.40;;;7.00;99.90;;;;;;5014790;28;93222;-74
2023/03/09 11:59:54;;;;;;;17.40;12.63;;;6.90;99.90;;;;;;4997124;28;92562;-74
2023/03/09 12:02:37;;;;;;;18.50;11.48;;;7.10;99.90;;;;;;5009405;28;92391;-74
2023/03/09 12:05:11;;;;;;;16.13;12.17;;;7.00;99.90;;;;;;5015351;28;93005;-74
2023/03/09 12:08:03;;;;;;;15.73;12.00;;;7.00;99.90;;;;;;5013366;28;95761;-74
2023/03/09 12:10:39;;;;;;;14.43;10.77;;;6.90;99.90;;;;;;4996444;28;95647;-74
2023/03/09 12:13:30;;;;;;;16.80;12.43;;;6.80;99.90;;;;;;5016237;28;92516;-74
2023/03/09 12:16:08;;;;;;;15.82;12.05;;;6.80;99.90;;;;;;5017320;28;93109;-74
2023/03/09 12:18:42;;;;;;;16.30;12.20;;;6.80;99.90;;;;;;4998576;28;98311;-74
2023/03/09 12:21:10;;;;;;;15.60;11.18;;;6.80;99.90;;;;;;5018363;28;96265;-74
2023/03/09 12:23:37;;;;;;;18.73;12.85;;;6.70;99.90;;;;;;4999740;28;92594;-74
2023/03/09 12:26:30;;;;;;;19.25;14.38;;;6.60;99.90;;;;;;5000129;28;92474;-74
2023/03/09 12:29:18;;;;;;;18.05;12.43;;;6.70;99.90;;;;;;5018028;28;92842;-74
2023/03/09 12:32:14;;;;;;;17.20;11.82;;;6.70;99.90;;;;;;5000015;28;93008;-74
2023/03/09 12:34:43;;;;;;;16.52;12.45;;;6.80;99.90;;;;;;5018092;28;92378;-74
2023/03/09 12:37:28;;;;;;;16.08;12.10;;;6.90;99.90;;;;;;4984144;28;91752;-74
2023/03/09 12:40:17;;;;;;;18.17;11.98;;;7.10;99.90;;;;;;5017536;28;93261;-74
2023/03/09 12:42:47;;;;;;;15.55;12.00;;;7.00;99.90;;;;;;5017783;28;93427;-74
2023/03/09 12:45:19;;;;;;;17.02;13.48;;;7.00;99.90;;;;;;5016736;28;94942;-74
2023/03/09 12:48:20;;;;;;;17.38;12.63;;;7.10;99.90;;;;;;5017749;28;92453;-74
2023/03/09 12:50:51;;;;;;;16.63;12.13;;;7.20;99.90;;;;;;5017727;28;93185;-74
2023/03/09 12:53:20;;;;;;;16.67;12.40;;;7.20;99.90;;;;;;5016757;28;93119;-75
2023/03/09 12:55:50;;;;;;;17.02;12.57;;;7.20;99.90;;;;;;4979699;28;92524;-74
2023/03/09 12:58:22;;;;;;;16.95;12.93;;;7.40;99.90;;;;;;4998034;28;92397;-74
2023/03/09 13:01:12;;;;;;;17.02;12.27;;;7.40;99.90;;;;;;4979557;28;93904;-74